Time;durP1;ratioP1;P1;durP2;ratioP2;P2;SDS_P1;SDS_P2;PMS_P1;PMS_P2;Temp;Humidity;BMP_temperature;BMP_pressure;BME280_temperature;BME280_humidity;BME280_pressure;Samples;Min_cycle;Max_cycle;Signal;HPM_P1;HPM_P2
2022/07/22 00:00:24;;;;;;;;;;;;;;;;;;5036310;28;19917;-81
2022/07/22 00:02:50;;;;;;;;;;;;;;;;;;5036510;28;19922;-80
2022/07/22 00:05:15;;;;;;;;;;;;;;;;;;5036214;28;19917;-81
2022/07/22 00:07:40;;;;;;;;;;;;;;;;;;5018280;28;19939;-81
2022/07/22 00:10:06;;;;;;;;;;;;;;;;;;5035801;28;19917;-80
2022/07/22 00:12:32;;;;;;;;;;;;;;;;;;5034682;28;20291;-80
2022/07/22 00:14:57;;;;;;;;;;;;;;;;;;5034633;28;19943;-80
2022/07/22 00:17:22;;;;;;;;;;;;;;;;;;5034844;28;20012;-80
2022/07/22 00:19:47;;;;;;;;;;;;;;;;;;5034853;28;19917;-80
2022/07/22 00:22:13;;;;;;;;;;;;;;;;;;5034493;28;20375;-80
2022/07/22 00:24:38;;;;;;;;;;;;;;;;;;5035315;28;19917;-79
2022/07/22 00:27:03;;;;;;;;;;;;;;;;;;5035598;28;19917;-80
2022/07/22 00:29:29;;;;;;;;;;;;;;;;;;5035807;28;19955;-80
2022/07/22 00:31:54;;;;;;;;;;;;;;;;;;5035757;28;19920;-80
2022/07/22 00:34:19;;;;;;;;;;;;;;;;;;5034624;28;19913;-80
2022/07/22 00:36:44;;;;;;;;;;;;;;;;;;5033628;28;19921;-81
2022/07/22 00:39:10;;;;;;;;;;;;;;;;;;5035780;28;20339;-80
2022/07/22 00:41:35;;;;;;;;;;;;;;;;;;5035304;28;19933;-80
2022/07/22 00:44:02;;;;;;;;;;;;;;;;;;5017504;28;19923;-80
2022/07/22 00:46:27;;;;;;;;;;;;;;;;;;5035531;28;19913;-79
2022/07/22 00:48:53;;;;;;;;;;;;;;;;;;5034848;28;20264;-80
2022/07/22 00:51:18;;;;;;;;;;;;;;;;;;5039739;28;19956;-80
2022/07/22 00:53:44;;;;;;;;;;;;;;;;;;5035799;28;19913;-80
2022/07/22 00:56:10;;;;;;;;;;;;;;;;;;5034210;28;19917;-80
2022/07/22 00:58:35;;;;;;;;;;;;;;;;;;5033794;28;20340;-80
2022/07/22 01:01:00;;;;;;;;;;;;;;;;;;5017536;28;19920;-80
2022/07/22 01:03:26;;;;;;;;;;;;;;;;;;5035167;28;19925;-80
2022/07/22 01:05:51;;;;;;;;;;;;;;;;;;5035145;28;19957;-80
2022/07/22 01:08:16;;;;;;;;;;;;;;;;;;5033724;28;19921;-80
2022/07/22 01:10:41;;;;;;;;;;;;;;;;;;5033682;28;19921;-80
2022/07/22 01:13:07;;;;;;;;;;;;;;;;;;5033667;28;20387;-80
2022/07/22 01:15:33;;;;;;;;;;;;;;;;;;5033397;28;20054;-79
2022/07/22 01:17:59;;;;;;;;;;;;;;;;;;5033436;28;20287;-79
2022/07/22 01:20:25;;;;;;;;;;;;;;;;;;5016892;28;20011;-79
2022/07/22 01:22:50;;;;;;;;;;;;;;;;;;5033273;28;19918;-80
2022/07/22 01:25:16;;;;;;;;;;;;;;;;;;5034428;28;19959;-80
2022/07/22 01:27:41;;;;;;;;;;;;;;;;;;5033287;28;20028;-80
2022/07/22 01:30:07;;;;;;;;;;;;;;;;;;5034790;28;19960;-81
2022/07/22 01:32:33;;;;;;;;;;;;;;;;;;5033933;28;20415;-81
2022/07/22 01:34:58;;;;;;;;;;;;;;;;;;5033718;28;19925;-81
2022/07/22 01:37:23;;;;;;;;;;;;;;;;;;5033234;28;19917;-80
2022/07/22 01:39:49;;;;;;;;;;;;;;;;;;5034163;28;19932;-80
2022/07/22 01:42:14;;;;;;;;;;;;;;;;;;5016391;28;20322;-80
2022/07/22 01:44:39;;;;;;;;;;;;;;;;;;5034292;28;19926;-80
2022/07/22 01:47:05;;;;;;;;;;;;;;;;;;5032828;28;19913;-80
2022/07/22 01:49:30;;;;;;;;;;;;;;;;;;5032084;28;20034;-80
2022/07/22 01:51:55;;;;;;;;;;;;;;;;;;5035542;28;20387;-80
2022/07/22 01:54:20;;;;;;;;;;;;;;;;;;5033688;28;19913;-80
2022/07/22 01:56:46;;;;;;;;;;;;;;;;;;5035214;28;20275;-80
2022/07/22 01:59:11;;;;;;;;;;;;;;;;;;5033750;28;19917;-79
2022/07/22 02:01:36;;;;;;;;;;;;;;;;;;5034618;28;19948;-80
2022/07/22 02:04:01;;;;;;;;;;;;;;;;;;5033125;28;19935;-80
2022/07/22 02:06:27;;;;;;;;;;;;;;;;;;5033105;28;19949;-80
2022/07/22 02:08:52;;;;;;;;;;;;;;;;;;5032925;28;20000;-80
2022/07/22 02:11:18;;;;;;;;;;;;;;;;;;5034323;28;20425;-80
2022/07/22 02:13:43;;;;;;;;;;;;;;;;;;5034509;28;19924;-80
2022/07/22 02:16:08;;;;;;;;;;;;;;;;;;5034332;28;19967;-80
2022/07/22 02:18:33;;;;;;;;;;;;;;;;;;5033918;28;19925;-80
2022/07/22 02:20:59;;;;;;;;;;;;;;;;;;5032463;28;19921;-81
2022/07/22 02:23:24;;;;;;;;;;;;;;;;;;5016006;28;19925;-80
2022/07/22 02:25:49;;;;;;;;;;;;;;;;;;5032420;28;19913;-80
2022/07/22 02:28:15;;;;;;;;;;;;;;;;;;5033032;28;19959;-81
2022/07/22 02:30:40;;;;;;;;;;;;;;;;;;5032781;28;20335;-81
2022/07/22 02:33:05;;;;;;;;;;;;;;;;;;5032876;28;19920;-81
2022/07/22 02:35:31;;;;;;;;;;;;;;;;;;5033219;28;20011;-81
2022/07/22 02:37:56;;;;;;;;;;;;;;;;;;5032771;28;19928;-81
2022/07/22 02:40:21;;;;;;;;;;;;;;;;;;5034242;28;19925;-80
2022/07/22 02:42:46;;;;;;;;;;;;;;;;;;5015982;28;19925;-81
2022/07/22 02:45:12;;;;;;;;;;;;;;;;;;5032281;28;19917;-80
2022/07/22 02:47:47;;;;;;;;;;;;;;;;;;5032395;28;19917;-80
2022/07/22 02:50:13;;;;;;;;;;;;;;;;;;5015857;28;20291;-80
2022/07/22 02:52:38;;;;;;;;;;;;;;;;;;5032235;28;19917;-81
2022/07/22 02:55:05;;;;;;;;;;;;;;;;;;5032277;28;19918;-81
2022/07/22 02:57:30;;;;;;;;;;;;;;;;;;5033503;28;20055;-81
2022/07/22 02:59:56;;;;;;;;;;;;;;;;;;5032906;28;19955;-80
2022/07/22 03:02:21;;;;;;;;;;;;;;;;;;5037266;28;19923;-80
2022/07/22 03:04:48;;;;;;;;;;;;;;;;;;5036739;28;20472;-80
2022/07/22 03:07:13;;;;;;;;;;;;;;;;;;5036297;28;19968;-81
2022/07/22 03:09:38;;;;;;;;;;;;;;;;;;5037494;28;20257;-81
2022/07/22 03:12:04;;;;;;;;;;;;;;;;;;5019324;28;19956;-81
2022/07/22 03:14:29;;;;;;;;;;;;;;;;;;5037413;28;19917;-80
2022/07/22 03:16:54;;;;;;;;;;;;;;;;;;5037179;28;19925;-80
2022/07/22 03:19:19;;;;;;;;;;;;;;;;;;5035783;28;20035;-80
2022/07/22 03:21:45;;;;;;;;;;;;;;;;;;5035494;28;19921;-80
2022/07/22 03:24:10;;;;;;;;;;;;;;;;;;5036763;28;19921;-80
2022/07/22 03:26:35;;;;;;;;;;;;;;;;;;5037028;28;19917;-80
2022/07/22 03:29:00;;;;;;;;;;;;;;;;;;5035423;28;19921;-79
2022/07/22 03:31:26;;;;;;;;;;;;;;;;;;5036716;28;19917;-80
2022/07/22 03:33:52;;;;;;;;;;;;;;;;;;5035457;28;19917;-80
2022/07/22 03:36:17;;;;;;;;;;;;;;;;;;5036771;28;19917;-80
2022/07/22 03:38:42;;;;;;;;;;;;;;;;;;5035009;28;20372;-80
2022/07/22 03:41:07;;;;;;;;;;;;;;;;;;5035003;28;20269;-80
2022/07/22 03:43:34;;;;;;;;;;;;;;;;;;5036248;28;19964;-80
2022/07/22 03:45:59;;;;;;;;;;;;;;;;;;5019337;28;20271;-80
2022/07/22 03:48:24;;;;;;;;;;;;;;;;;;5034909;28;20008;-80
2022/07/22 03:50:51;;;;;;;;;;;;;;;;;;5035321;28;19913;-80
2022/07/22 03:53:16;;;;;;;;;;;;;;;;;;5036507;28;20016;-80
2022/07/22 03:55:42;;;;;;;;;;;;;;;;;;5034919;28;19956;-80
2022/07/22 03:58:07;;;;;;;;;;;;;;;;;;5036013;28;19917;-80
2022/07/22 04:00:32;;;;;;;;;;;;;;;;;;5036219;28;20406;-80
2022/07/22 04:02:57;;;;;;;;;;;;;;;;;;5034740;28;19928;-80
2022/07/22 04:05:23;;;;;;;;;;;;;;;;;;5034695;28;19955;-80
2022/07/22 04:07:48;;;;;;;;;;;;;;;;;;5035900;28;19917;-81
2022/07/22 04:10:13;;;;;;;;;;;;;;;;;;5035899;28;19928;-81
2022/07/22 04:12:39;;;;;;;;;;;;;;;;;;5035082;28;20376;-81
2022/07/22 04:15:05;;;;;;;;;;;;;;;;;;5018096;28;19913;-80
2022/07/22 04:17:30;;;;;;;;;;;;;;;;;;5018450;28;19917;-80
2022/07/22 04:19:55;;;;;;;;;;;;;;;;;;5034315;28;20080;-81
2022/07/22 04:22:20;;;;;;;;;;;;;;;;;;5035881;28;20356;-80
2022/07/22 04:24:46;;;;;;;;;;;;;;;;;;5034526;28;19963;-80
2022/07/22 04:27:11;;;;;;;;;;;;;;;;;;5034897;28;19971;-80
2022/07/22 04:29:36;;;;;;;;;;;;;;;;;;5017888;28;20401;-81
2022/07/22 04:32:02;;;;;;;;;;;;;;;;;;5017357;28;20412;-81
2022/07/22 04:34:27;;;;;;;;;;;;;;;;;;5016890;28;19959;-81
2022/07/22 04:36:52;;;;;;;;;;;;;;;;;;5033231;28;19917;-81
2022/07/22 04:39:18;;;;;;;;;;;;;;;;;;5033124;28;19925;-80
2022/07/22 04:41:43;;;;;;;;;;;;;;;;;;5034977;28;19944;-80
2022/07/22 04:44:08;;;;;;;;;;;;;;;;;;5034383;28;19975;-80
2022/07/22 04:46:33;;;;;;;;;;;;;;;;;;5033166;28;19964;-81
2022/07/22 04:48:59;;;;;;;;;;;;;;;;;;5033521;28;19924;-80
2022/07/22 04:51:24;;;;;;;;;;;;;;;;;;5034994;28;20431;-81
2022/07/22 04:53:49;;;;;;;;;;;;;;;;;;5016482;28;19913;-80
2022/07/22 04:56:14;;;;;;;;;;;;;;;;;;5033193;28;19917;-81
2022/07/22 04:58:40;;;;;;;;;;;;;;;;;;5034408;28;19940;-81
2022/07/22 05:01:05;;;;;;;;;;;;;;;;;;5034198;28;19968;-81
2022/07/22 05:03:31;;;;;;;;;;;;;;;;;;5032943;28;20372;-81
2022/07/22 05:05:56;;;;;;;;;;;;;;;;;;5034143;28;19917;-82
2022/07/22 05:08:21;;;;;;;;;;;;;;;;;;5034645;28;19944;-81
2022/07/22 05:10:47;;;;;;;;;;;;;;;;;;5033866;28;19917;-84
2022/07/22 05:13:13;;;;;;;;;;;;;;;;;;5032568;28;19986;-83
2022/07/22 05:15:38;;;;;;;;;;;;;;;;;;5033422;28;19970;-83
2022/07/22 05:18:04;;;;;;;;;;;;;;;;;;5034075;28;19917;-82
2022/07/22 05:20:29;;;;;;;;;;;;;;;;;;5032757;28;20307;-82
2022/07/22 05:22:54;;;;;;;;;;;;;;;;;;5032331;28;19917;-82
2022/07/22 05:25:19;;;;;;;;;;;;;;;;;;5032371;28;19940;-82
2022/07/22 05:27:51;;;;;;;;;;;;;;;;;;5016146;28;20283;-82
2022/07/22 05:30:17;;;;;;;;;;;;;;;;;;5034299;28;20013;-83
2022/07/22 05:32:42;;;;;;;;;;;;;;;;;;5033699;28;19932;-83
2022/07/22 05:35:07;;;;;;;;;;;;;;;;;;5032895;28;19936;-84
2022/07/22 05:37:32;;;;;;;;;;;;;;;;;;5032168;28;19933;-83
2022/07/22 05:39:58;;;;;;;;;;;;;;;;;;5033223;28;19925;-82
2022/07/22 05:42:23;;;;;;;;;;;;;;;;;;5034599;28;19925;-83
2022/07/22 05:44:49;;;;;;;;;;;;;;;;;;5035212;28;20063;-84
2022/07/22 05:47:14;;;;;;;;;;;;;;;;;;5017536;28;19919;-83
2022/07/22 05:49:39;;;;;;;;;;;;;;;;;;5034015;28;19944;-80
2022/07/22 05:52:04;;;;;;;;;;;;;;;;;;5036636;28;19964;-83
2022/07/22 05:54:30;;;;;;;;;;;;;;;;;;5032709;28;19913;-82
2022/07/22 05:56:55;;;;;;;;;;;;;;;;;;5035064;28;19996;-82
2022/07/22 05:59:20;;;;;;;;;;;;;;;;;;5034212;28;19921;-83
2022/07/22 06:01:46;;;;;;;;;;;;;;;;;;5017012;28;20003;-83
2022/07/22 06:04:11;;;;;;;;;;;;;;;;;;5033889;28;19970;-83
2022/07/22 06:06:36;;;;;;;;;;;;;;;;;;5035275;28;19917;-83
2022/07/22 06:09:01;;;;;;;;;;;;;;;;;;5033261;28;19940;-83
2022/07/22 06:11:27;;;;;;;;;;;;;;;;;;5033529;28;20287;-83
2022/07/22 06:13:53;;;;;;;;;;;;;;;;;;5035890;28;20554;-83
2022/07/22 06:16:18;;;;;;;;;;;;;;;;;;5033900;28;19928;-82
2022/07/22 06:18:43;;;;;;;;;;;;;;;;;;5033449;28;19913;-83
2022/07/22 06:21:09;;;;;;;;;;;;;;;;;;5033559;28;19920;-83
2022/07/22 06:23:34;;;;;;;;;;;;;;;;;;5035988;28;19921;-83
2022/07/22 06:26:00;;;;;;;;;;;;;;;;;;5035957;28;19913;-83
2022/07/22 06:28:25;;;;;;;;;;;;;;;;;;5035287;28;19917;-83
2022/07/22 06:30:50;;;;;;;;;;;;;;;;;;5036213;28;19951;-83
2022/07/22 06:33:16;;;;;;;;;;;;;;;;;;5035047;28;19924;-82
2022/07/22 06:35:41;;;;;;;;;;;;;;;;;;5037492;28;20328;-81
2022/07/22 06:38:07;;;;;;;;;;;;;;;;;;5039134;28;19923;-80
2022/07/22 06:40:32;;;;;;;;;;;;;;;;;;5036729;28;19920;-79
2022/07/22 06:42:58;;;;;;;;;;;;;;;;;;5036948;28;19921;-81
2022/07/22 06:45:23;;;;;;;;;;;;;;;;;;5037360;28;19917;-81
2022/07/22 06:47:48;;;;;;;;;;;;;;;;;;5037787;28;20364;-81
2022/07/22 06:50:14;;;;;;;;;;;;;;;;;;5037944;28;19917;-83
2022/07/22 06:52:40;;;;;;;;;;;;;;;;;;5020244;28;19955;-82
2022/07/22 06:55:05;;;;;;;;;;;;;;;;;;5037071;28;19959;-81
2022/07/22 06:57:30;;;;;;;;;;;;;;;;;;5036814;28;19959;-81
2022/07/22 06:59:56;;;;;;;;;;;;;;;;;;5038009;28;20399;-81
2022/07/22 07:02:21;;;;;;;;;;;;;;;;;;5022378;28;20344;-82
2022/07/22 07:04:46;;;;;;;;;;;;;;;;;;5038848;28;19917;-81
2022/07/22 07:07:11;;;;;;;;;;;;;;;;;;5040166;28;19933;-80
2022/07/22 07:09:37;;;;;;;;;;;;;;;;;;5022270;28;19925;-81
2022/07/22 07:12:02;;;;;;;;;;;;;;;;;;5037109;28;19923;-81
2022/07/22 07:14:27;;;;;;;;;;;;;;;;;;5036838;28;19917;-81
2022/07/22 07:16:52;;;;;;;;;;;;;;;;;;5035691;28;19964;-82
2022/07/22 07:19:19;;;;;;;;;;;;;;;;;;5036613;28;19917;-82
2022/07/22 07:21:45;;;;;;;;;;;;;;;;;;5038134;28;20324;-82
2022/07/22 07:24:11;;;;;;;;;;;;;;;;;;5037103;28;19960;-82
2022/07/22 07:26:36;;;;;;;;;;;;;;;;;;5037781;28;19967;-81
2022/07/22 07:29:01;;;;;;;;;;;;;;;;;;5036295;28;19964;-81
2022/07/22 07:31:27;;;;;;;;;;;;;;;;;;5037190;28;20015;-81
2022/07/22 07:33:53;;;;;;;;;;;;;;;;;;5036092;28;19920;-83
2022/07/22 07:36:19;;;;;;;;;;;;;;;;;;5036599;28;20538;-83
2022/07/22 07:38:44;;;;;;;;;;;;;;;;;;5034860;28;19996;-83
2022/07/22 07:41:09;;;;;;;;;;;;;;;;;;5036693;28;19961;-85
2022/07/22 07:43:34;;;;;;;;;;;;;;;;;;5036017;28;20360;-83
2022/07/22 07:46:00;;;;;;;;;;;;;;;;;;5035204;28;19971;-83
2022/07/22 07:48:25;;;;;;;;;;;;;;;;;;5018948;28;19919;-83
2022/07/22 07:50:51;;;;;;;;;;;;;;;;;;5034727;28;19924;-83
2022/07/22 07:53:16;;;;;;;;;;;;;;;;;;5034860;28;19918;-83
2022/07/22 07:55:42;;;;;;;;;;;;;;;;;;5018176;28;19913;-83
2022/07/22 07:58:07;;;;;;;;;;;;;;;;;;5017885;28;19920;-82
2022/07/22 08:00:34;;;;;;;;;;;;;;;;;;5034360;28;20248;-84
2022/07/22 08:02:59;;;;;;;;;;;;;;;;;;5036630;28;20283;-83
2022/07/22 08:05:25;;;;;;;;;;;;;;;;;;5034660;28;19913;-83
2022/07/22 08:07:50;;;;;;;;;;;;;;;;;;5018140;28;19921;-82
2022/07/22 08:10:16;;;;;;;;;;;;;;;;;;5034607;28;19960;-83
2022/07/22 08:12:41;;;;;;;;;;;;;;;;;;5035904;28;20003;-83
2022/07/22 08:15:07;;;;;;;;;;;;;;;;;;5035830;28;19917;-81
2022/07/22 08:17:32;;;;;;;;;;;;;;;;;;5033898;28;19970;-80
2022/07/22 08:19:58;;;;;;;;;;;;;;;;;;5017442;28;19940;-81
2022/07/22 08:22:23;;;;;;;;;;;;;;;;;;5035252;28;19929;-80
2022/07/22 08:24:48;;;;;;;;;;;;;;;;;;5033969;28;19917;-81
2022/07/22 08:27:14;;;;;;;;;;;;;;;;;;5034045;28;19913;-81
2022/07/22 08:29:39;;;;;;;;;;;;;;;;;;5033952;28;20360;-80
2022/07/22 08:32:04;;;;;;;;;;;;;;;;;;5035051;28;19917;-79
2022/07/22 08:34:30;;;;;;;;;;;;;;;;;;5035622;28;19918;-81
2022/07/22 08:36:56;;;;;;;;;;;;;;;;;;5017889;28;19920;-80
2022/07/22 08:39:21;;;;;;;;;;;;;;;;;;5033539;28;19925;-81
2022/07/22 08:41:46;;;;;;;;;;;;;;;;;;5033924;28;19971;-80
2022/07/22 08:44:11;;;;;;;;;;;;;;;;;;5036724;28;20112;-80
2022/07/22 08:46:37;;;;;;;;;;;;;;;;;;5035816;28;19924;-80
2022/07/22 08:49:02;;;;;;;;;;;;;;;;;;5035195;28;20443;-81
2022/07/22 08:51:28;;;;;;;;;;;;;;;;;;5034162;28;19919;-81
2022/07/22 08:53:53;;;;;;;;;;;;;;;;;;5033624;28;19925;-80
2022/07/22 08:56:19;;;;;;;;;;;;;;;;;;5033579;28;19913;-80
2022/07/22 08:58:44;;;;;;;;;;;;;;;;;;5034287;28;19963;-78
2022/07/22 09:01:10;;;;;;;;;;;;;;;;;;5016817;28;19956;-79
2022/07/22 09:03:52;;;;;;;;;;;;;;;;;;5034823;28;19917;-80
2022/07/22 09:06:18;;;;;;;;;;;;;;;;;;5033684;28;19913;-80
2022/07/22 09:08:52;;;;;;;;;;;;;;;;;;5033839;28;20450;-79
2022/07/22 09:11:18;;;;;;;;;;;;;;;;;;5034416;28;20327;-80
2022/07/22 09:13:43;;;;;;;;;;;;;;;;;;5033356;28;20335;-79
2022/07/22 09:16:09;;;;;;;;;;;;;;;;;;5033391;28;19920;-79
2022/07/22 09:18:44;;;;;;;;;;;;;;;;;;5033193;28;19916;-79
2022/07/22 09:21:11;;;;;;;;;;;;;;;;;;5033452;28;19924;-78
2022/07/22 09:23:39;;;;;;;;;;;;;;;;;;5034190;28;20395;-78
2022/07/22 09:26:05;;;;;;;;;;;;;;;;;;5032874;28;20368;-78
2022/07/22 09:28:30;;;;;;;;;;;;;;;;;;5016364;28;19925;-78
2022/07/22 09:30:55;;;;;;;;;;;;;;;;;;5016520;28;19917;-78
2022/07/22 09:33:21;;;;;;;;;;;;;;;;;;5033372;28;20403;-78
2022/07/22 09:35:47;;;;;;;;;;;;;;;;;;5033038;28;19924;-79
2022/07/22 09:38:12;;;;;;;;;;;;;;;;;;5033958;28;20386;-78
2022/07/22 09:40:39;;;;;;;;;;;;;;;;;;5033809;28;20006;-79
2022/07/22 09:43:05;;;;;;;;;;;;;;;;;;5016169;28;19921;-79
2022/07/22 09:45:30;;;;;;;;;;;;;;;;;;5032710;28;19917;-79
2022/07/22 09:47:56;;;;;;;;;;;;;;;;;;5033392;28;19914;-80
2022/07/22 09:50:25;;;;;;;;;;;;;;;;;;5016123;28;19913;-79
2022/07/22 09:52:52;;;;;;;;;;;;;;;;;;5033275;28;19971;-79
2022/07/22 09:55:19;;;;;;;;;;;;;;;;;;5017870;28;19921;-79
2022/07/22 09:57:45;;;;;;;;;;;;;;;;;;5035063;28;20247;-80
2022/07/22 10:00:11;;;;;;;;;;;;;;;;;;5034493;28;19917;-80
2022/07/22 10:02:55;;;;;;;;;;;;;;;;;;5033293;28;19948;-79
2022/07/22 10:05:24;;;;;;;;;;;;;;;;;;5033423;28;19918;-80
2022/07/22 10:07:50;;;;;;;;;;;;;;;;;;5033107;28;19955;-79
2022/07/22 10:10:16;;;;;;;;;;;;;;;;;;5031669;28;19917;-78
2022/07/22 10:12:42;;;;;;;;;;;;;;;;;;5032311;28;19920;-79
2022/07/22 10:15:08;;;;;;;;;;;;;;;;;;5015421;28;19913;-79
2022/07/22 10:17:33;;;;;;;;;;;;;;;;;;5032110;28;19956;-79
2022/07/22 10:19:59;;;;;;;;;;;;;;;;;;5032667;28;19993;-80
2022/07/22 10:22:39;;;;;;;;;;;;;;;;;;5032884;28;19917;-79
2022/07/22 10:25:05;;;;;;;;;;;;;;;;;;5032635;28;20354;-80
2022/07/22 10:27:43;;;;;;;;;;;;;;;;;;5031619;28;19913;-80
2022/07/22 10:30:09;;;;;;;;;;;;;;;;;;5032898;28;19917;-79
2022/07/22 10:32:34;;;;;;;;;;;;;;;;;;5033058;28;20062;-80
2022/07/22 10:35:03;;;;;;;;;;;;;;;;;;5015433;28;19917;-81
2022/07/22 10:37:31;;;;;;;;;;;;;;;;;;5034144;28;19924;-80
2022/07/22 10:40:22;;;;;;;;;;;;;;;;;;5032518;28;19929;-79
2022/07/22 10:42:56;;;;;;;;;;;;;;;;;;5033178;28;19975;-80
2022/07/22 10:45:21;;;;;;;;;;;;;;;;;;5031075;28;19923;-80
2022/07/22 10:47:59;;;;;;;;;;;;;;;;;;5014481;28;19917;-80
2022/07/22 10:50:37;;;;;;;;;;;;;;;;;;5032000;28;20372;-80
2022/07/22 10:53:11;;;;;;;;;;;;;;;;;;5031028;28;19953;-80
2022/07/22 10:55:37;;;;;;;;;;;;;;;;;;5032455;28;19956;-80
2022/07/22 10:58:21;;;;;;;;;;;;;;;;;;5033367;28;20014;-79
2022/07/22 11:00:46;;;;;;;;;;;;;;;;;;5033549;28;19913;-81
2022/07/22 11:03:12;;;;;;;;;;;;;;;;;;5032686;28;19917;-82
2022/07/22 11:05:37;;;;;;;;;;;;;;;;;;5032765;28;20256;-82
2022/07/22 11:08:02;;;;;;;;;;;;;;;;;;5032673;28;20044;-82
2022/07/22 11:10:27;;;;;;;;;;;;;;;;;;5015684;28;19925;-82
2022/07/22 11:12:53;;;;;;;;;;;;;;;;;;5033504;28;19971;-82
2022/07/22 11:15:18;;;;;;;;;;;;;;;;;;5032678;28;19913;-82
2022/07/22 11:17:43;;;;;;;;;;;;;;;;;;5033294;28;20007;-78
2022/07/22 11:20:09;;;;;;;;;;;;;;;;;;5033983;28;20372;-80
2022/07/22 11:22:35;;;;;;;;;;;;;;;;;;5035110;28;19917;-79
2022/07/22 11:25:00;;;;;;;;;;;;;;;;;;5035276;28;20294;-79
2022/07/22 11:27:26;;;;;;;;;;;;;;;;;;5035085;28;19932;-79
2022/07/22 11:29:52;;;;;;;;;;;;;;;;;;5036031;28;19921;-79
2022/07/22 11:32:17;;;;;;;;;;;;;;;;;;5034801;28;20375;-79
2022/07/22 11:34:45;;;;;;;;;;;;;;;;;;5034902;28;19921;-79
2022/07/22 11:37:10;;;;;;;;;;;;;;;;;;5018458;28;20276;-79
2022/07/22 11:39:36;;;;;;;;;;;;;;;;;;5018052;28;19925;-79
2022/07/22 11:42:01;;;;;;;;;;;;;;;;;;5034773;28;20066;-79
2022/07/22 11:44:27;;;;;;;;;;;;;;;;;;5018207;28;19964;-80
2022/07/22 11:46:54;;;;;;;;;;;;;;;;;;5018519;28;20037;-80
2022/07/22 11:49:20;;;;;;;;;;;;;;;;;;5034662;28;20299;-81
2022/07/22 11:51:45;;;;;;;;;;;;;;;;;;5018622;28;19913;-83
2022/07/22 11:54:10;;;;;;;;;;;;;;;;;;5018054;28;20347;-83
2022/07/22 11:56:36;;;;;;;;;;;;;;;;;;5019362;28;19949;-82
2022/07/22 11:59:04;;;;;;;;;;;;;;;;;;5034749;28;19915;-81
2022/07/22 12:01:30;;;;;;;;;;;;;;;;;;5034520;28;19913;-81
2022/07/22 12:03:57;;;;;;;;;;;;;;;;;;5034674;28;19921;-80
2022/07/22 12:06:23;;;;;;;;;;;;;;;;;;5018408;28;19913;-80
2022/07/22 12:08:49;;;;;;;;;;;;;;;;;;5034708;28;20233;-80
2022/07/22 12:11:16;;;;;;;;;;;;;;;;;;5034659;28;20287;-81
2022/07/22 12:13:43;;;;;;;;;;;;;;;;;;5034152;28;19967;-81
2022/07/22 12:16:27;;;;;;;;;;;;;;;;;;5017528;28;19913;-81
2022/07/22 12:18:54;;;;;;;;;;;;;;;;;;5017574;28;20439;-80
2022/07/22 12:21:21;;;;;;;;;;;;;;;;;;5033938;28;20296;-80
2022/07/22 12:23:53;;;;;;;;;;;;;;;;;;5033867;28;19921;-80
2022/07/22 12:26:18;;;;;;;;;;;;;;;;;;5033747;28;20277;-81
2022/07/22 12:28:44;;;;;;;;;;;;;;;;;;5034021;28;19924;-80
2022/07/22 12:31:09;;;;;;;;;;;;;;;;;;5034020;28;19913;-78
2022/07/22 12:33:35;;;;;;;;;;;;;;;;;;5034029;28;20011;-79
2022/07/22 12:36:02;;;;;;;;;;;;;;;;;;5035015;28;20011;-79
2022/07/22 12:38:28;;;;;;;;;;;;;;;;;;5033673;28;19921;-77
2022/07/22 12:40:53;;;;;;;;;;;;;;;;;;5034653;28;19972;-78
2022/07/22 12:43:21;;;;;;;;;;;;;;;;;;5033594;28;20323;-79
2022/07/22 12:45:47;;;;;;;;;;;;;;;;;;5033663;28;19913;-79
2022/07/22 12:48:13;;;;;;;;;;;;;;;;;;5033770;28;20411;-79
2022/07/22 12:50:42;;;;;;;;;;;;;;;;;;5034939;28;19964;-80
2022/07/22 12:53:08;;;;;;;;;;;;;;;;;;5034789;28;19920;-79
2022/07/22 12:55:34;;;;;;;;;;;;;;;;;;5034530;28;19921;-79
2022/07/22 12:58:00;;;;;;;;;;;;;;;;;;5034487;28;19917;-80
2022/07/22 13:00:26;;;;;;;;;;;;;;;;;;5033453;28;20327;-80
2022/07/22 13:02:52;;;;;;;;;;;;;;;;;;5033104;28;20015;-79
2022/07/22 13:05:17;;;;;;;;;;;;;;;;;;5016607;28;19990;-80
2022/07/22 13:07:43;;;;;;;;;;;;;;;;;;5033382;28;19917;-79
2022/07/22 13:10:08;;;;;;;;;;;;;;;;;;5033091;28;19913;-79
2022/07/22 13:12:33;;;;;;;;;;;;;;;;;;5033466;28;20023;-79
2022/07/22 13:14:59;;;;;;;;;;;;;;;;;;5034732;28;19917;-79
2022/07/22 13:17:24;;;;;;;;;;;;;;;;;;5033455;28;19917;-78
2022/07/22 13:19:49;;;;;;;;;;;;;;;;;;5033046;28;20107;-79
2022/07/22 13:22:14;;;;;;;;;;;;;;;;;;5034308;28;20364;-79
2022/07/22 13:24:40;;;;;;;;;;;;;;;;;;5032667;28;19928;-79
2022/07/22 13:27:05;;;;;;;;;;;;;;;;;;5032643;28;19924;-79
2022/07/22 13:29:30;;;;;;;;;;;;;;;;;;5032660;28;20426;-79
2022/07/22 13:31:55;;;;;;;;;;;;;;;;;;5033927;28;19917;-80
2022/07/22 13:34:21;;;;;;;;;;;;;;;;;;5034054;28;20383;-81
2022/07/22 13:36:46;;;;;;;;;;;;;;;;;;5032799;28;19917;-80
2022/07/22 13:39:11;;;;;;;;;;;;;;;;;;5015819;28;19921;-80
2022/07/22 13:41:36;;;;;;;;;;;;;;;;;;5032957;28;19917;-80
2022/07/22 13:44:02;;;;;;;;;;;;;;;;;;5032136;28;19917;-80
2022/07/22 13:46:27;;;;;;;;;;;;;;;;;;5016847;28;20336;-80
2022/07/22 13:48:53;;;;;;;;;;;;;;;;;;5033708;28;20434;-80
2022/07/22 13:51:18;;;;;;;;;;;;;;;;;;5034000;28;19967;-79
2022/07/22 13:53:43;;;;;;;;;;;;;;;;;;5032229;28;20015;-80
2022/07/22 13:56:10;;;;;;;;;;;;;;;;;;5032446;28;19913;-80
2022/07/22 13:58:35;;;;;;;;;;;;;;;;;;5016099;28;19920;-80
2022/07/22 14:01:00;;;;;;;;;;;;;;;;;;5032539;28;19913;-80
2022/07/22 14:03:26;;;;;;;;;;;;;;;;;;5033854;28;19921;-81
2022/07/22 14:05:51;;;;;;;;;;;;;;;;;;5032419;28;19979;-80
2022/07/22 14:08:16;;;;;;;;;;;;;;;;;;5031969;28;19936;-81
2022/07/22 14:10:42;;;;;;;;;;;;;;;;;;5032023;28;20297;-80
2022/07/22 14:13:07;;;;;;;;;;;;;;;;;;5033359;28;19928;-80
2022/07/22 14:15:33;;;;;;;;;;;;;;;;;;5033289;28;20352;-80
2022/07/22 14:17:58;;;;;;;;;;;;;;;;;;5032217;28;19913;-80
2022/07/22 14:20:23;;;;;;;;;;;;;;;;;;5032250;28;19929;-78
2022/07/22 14:22:49;;;;;;;;;;;;;;;;;;5033086;28;19917;-78
2022/07/22 14:25:14;;;;;;;;;;;;;;;;;;5032897;28;19952;-78
2022/07/22 14:27:39;;;;;;;;;;;;;;;;;;5033150;28;19971;-78
2022/07/22 14:30:05;;;;;;;;;;;;;;;;;;5032955;28;19913;-78
2022/07/22 14:32:30;;;;;;;;;;;;;;;;;;5032715;28;20027;-81
2022/07/22 14:34:55;;;;;;;;;;;;;;;;;;5032875;28;19956;-79
2022/07/22 14:37:21;;;;;;;;;;;;;;;;;;5032959;28;19940;-79
2022/07/22 14:39:47;;;;;;;;;;;;;;;;;;5031401;28;20222;-79
2022/07/22 14:42:12;;;;;;;;;;;;;;;;;;5031711;28;19925;-78
2022/07/22 14:44:37;;;;;;;;;;;;;;;;;;5032995;28;19921;-79
2022/07/22 14:47:03;;;;;;;;;;;;;;;;;;5033138;28;19944;-78
2022/07/22 14:49:28;;;;;;;;;;;;;;;;;;5033161;28;19918;-78
2022/07/22 14:51:54;;;;;;;;;;;;;;;;;;5033199;28;19913;-79
2022/07/22 14:54:19;;;;;;;;;;;;;;;;;;5031834;28;19963;-79
2022/07/22 14:56:44;;;;;;;;;;;;;;;;;;5033705;28;20323;-79
2022/07/22 14:59:09;;;;;;;;;;;;;;;;;;5037048;28;19913;-79
2022/07/22 15:01:35;;;;;;;;;;;;;;;;;;5035978;28;19913;-80
2022/07/22 15:04:00;;;;;;;;;;;;;;;;;;5035527;28;19926;-79
2022/07/22 15:06:25;;;;;;;;;;;;;;;;;;5035357;28;19913;-79
2022/07/22 15:08:50;;;;;;;;;;;;;;;;;;5035345;28;20030;-79
2022/07/22 15:11:16;;;;;;;;;;;;;;;;;;5035160;28;19917;-79
2022/07/22 15:13:42;;;;;;;;;;;;;;;;;;5035088;28;20347;-79
2022/07/22 15:16:08;;;;;;;;;;;;;;;;;;5036230;28;20255;-79
2022/07/22 15:18:34;;;;;;;;;;;;;;;;;;5035432;28;19924;-79
2022/07/22 15:20:59;;;;;;;;;;;;;;;;;;5036313;28;19917;-80
2022/07/22 15:23:31;;;;;;;;;;;;;;;;;;5018212;28;19925;-80
2022/07/22 15:25:56;;;;;;;;;;;;;;;;;;5034931;28;20323;-79
2022/07/22 15:28:22;;;;;;;;;;;;;;;;;;5018186;28;19920;-79
2022/07/22 15:30:47;;;;;;;;;;;;;;;;;;5035041;28;19921;-79
2022/07/22 15:33:13;;;;;;;;;;;;;;;;;;5036155;28;19921;-78
2022/07/22 15:35:38;;;;;;;;;;;;;;;;;;5036094;28;20291;-79
2022/07/22 15:38:04;;;;;;;;;;;;;;;;;;5018128;28;20292;-79
2022/07/22 15:40:29;;;;;;;;;;;;;;;;;;5035476;28;20020;-78
2022/07/22 15:42:54;;;;;;;;;;;;;;;;;;5035937;28;20294;-79
2022/07/22 15:45:20;;;;;;;;;;;;;;;;;;5034815;28;19945;-78
2022/07/22 15:47:45;;;;;;;;;;;;;;;;;;5036202;28;19921;-79
2022/07/22 15:50:10;;;;;;;;;;;;;;;;;;5037544;28;19984;-79
2022/07/22 15:52:36;;;;;;;;;;;;;;;;;;5035776;28;20344;-79
2022/07/22 15:55:01;;;;;;;;;;;;;;;;;;5034361;28;19913;-78
2022/07/22 16:00:10;;;;;;;;;;;;;;;;;;5035650;28;20359;-79
2022/07/22 16:02:35;;;;;;;;;;;;;;;;;;5034217;28;19917;-78
2022/07/22 16:05:00;;;;;;;;;;;;;;;;;;5035334;28;19917;-79
2022/07/22 16:07:26;;;;;;;;;;;;;;;;;;5033854;28;19918;-80
2022/07/22 16:09:51;;;;;;;;;;;;;;;;;;5035380;28;20008;-79
2022/07/22 16:12:16;;;;;;;;;;;;;;;;;;5034105;28;19913;-79
2022/07/22 16:14:42;;;;;;;;;;;;;;;;;;5034368;28;20271;-79
2022/07/22 16:17:07;;;;;;;;;;;;;;;;;;5017430;28;20042;-79
2022/07/22 16:19:32;;;;;;;;;;;;;;;;;;5033836;28;19956;-79
2022/07/22 16:21:57;;;;;;;;;;;;;;;;;;5033910;28;19913;-79
2022/07/22 16:24:23;;;;;;;;;;;;;;;;;;5033966;28;19928;-79
2022/07/22 16:26:48;;;;;;;;;;;;;;;;;;5033869;28;19917;-79
2022/07/22 16:29:13;;;;;;;;;;;;;;;;;;5017446;28;19917;-79
2022/07/22 16:31:39;;;;;;;;;;;;;;;;;;5033681;28;19920;-78
2022/07/22 16:34:04;;;;;;;;;;;;;;;;;;5035505;28;19932;-78
2022/07/22 16:36:29;;;;;;;;;;;;;;;;;;5033878;28;19987;-79
2022/07/22 16:38:54;;;;;;;;;;;;;;;;;;5035044;28;19931;-79